sensor_id;sensor_type;location;lat;lon;timestamp;temperature;humidity
24410;DHT22;12543;53.364;-1.504;2022-07-06T00:01:54;16.20;99.90
24410;DHT22;12543;53.364;-1.504;2022-07-06T00:04:21;16.20;99.90
24410;DHT22;12543;53.364;-1.504;2022-07-06T00:06:48;16.20;99.90
24410;DHT22;12543;53.364;-1.504;2022-07-06T00:09:18;16.20;99.90
24410;DHT22;12543;53.364;-1.504;2022-07-06T00:11:48;16.20;99.90
24410;DHT22;12543;53.364;-1.504;2022-07-06T00:14:14;16.20;99.90
24410;DHT22;12543;53.364;-1.504;2022-07-06T00:16:41;16.20;99.90
24410;DHT22;12543;53.364;-1.504;2022-07-06T00:19:11;16.10;99.90
24410;DHT22;12543;53.364;-1.504;2022-07-06T00:21:39;16.10;99.90
24410;DHT22;12543;53.364;-1.504;2022-07-06T00:24:06;16.20;99.90
24410;DHT22;12543;53.364;-1.504;2022-07-06T00:26:35;16.10;99.90
24410;DHT22;12543;53.364;-1.504;2022-07-06T00:29:02;16.10;99.90
24410;DHT22;12543;53.364;-1.504;2022-07-06T00:31:29;16.10;99.90
24410;DHT22;12543;53.364;-1.504;2022-07-06T00:33:57;16.20;99.90
24410;DHT22;12543;53.364;-1.504;2022-07-06T00:36:24;16.20;99.90
24410;DHT22;12543;53.364;-1.504;2022-07-06T00:38:51;16.10;99.90
24410;DHT22;12543;53.364;-1.504;2022-07-06T00:41:18;16.20;99.90
24410;DHT22;12543;53.364;-1.504;2022-07-06T00:43:48;16.20;99.90
24410;DHT22;12543;53.364;-1.504;2022-07-06T00:46:16;16.10;99.90
24410;DHT22;12543;53.364;-1.504;2022-07-06T00:48:43;16.10;99.90
24410;DHT22;12543;53.364;-1.504;2022-07-06T00:51:10;16.20;99.90
24410;DHT22;12543;53.364;-1.504;2022-07-06T00:53:38;16.20;99.90
24410;DHT22;12543;53.364;-1.504;2022-07-06T00:56:05;16.20;99.90
24410;DHT22;12543;53.364;-1.504;2022-07-06T00:58:32;16.20;99.90
24410;DHT22;12543;53.364;-1.504;2022-07-06T01:01:00;16.10;99.90
24410;DHT22;12543;53.364;-1.504;2022-07-06T01:03:27;16.10;99.90
24410;DHT22;12543;53.364;-1.504;2022-07-06T01:05:54;16.10;99.90
24410;DHT22;12543;53.364;-1.504;2022-07-06T01:08:21;16.10;99.90
24410;DHT22;12543;53.364;-1.504;2022-07-06T01:10:51;16.10;99.90
24410;DHT22;12543;53.364;-1.504;2022-07-06T01:13:18;16.10;99.90
24410;DHT22;12543;53.364;-1.504;2022-07-06T01:15:45;16.10;99.90
24410;DHT22;12543;53.364;-1.504;2022-07-06T01:18:12;16.00;99.90
24410;DHT22;12543;53.364;-1.504;2022-07-06T01:20:39;16.00;99.90
24410;DHT22;12543;53.364;-1.504;2022-07-06T01:23:06;16.00;99.90
24410;DHT22;12543;53.364;-1.504;2022-07-06T01:25:33;16.00;99.90
24410;DHT22;12543;53.364;-1.504;2022-07-06T01:28:00;16.00;99.90
24410;DHT22;12543;53.364;-1.504;2022-07-06T01:30:30;16.00;99.90
24410;DHT22;12543;53.364;-1.504;2022-07-06T01:32:57;16.00;99.90
24410;DHT22;12543;53.364;-1.504;2022-07-06T01:35:24;16.00;99.90
24410;DHT22;12543;53.364;-1.504;2022-07-06T01:37:53;16.10;99.90
24410;DHT22;12543;53.364;-1.504;2022-07-06T01:40:20;16.10;99.90
24410;DHT22;12543;53.364;-1.504;2022-07-06T01:42:47;16.10;99.90
24410;DHT22;12543;53.364;-1.504;2022-07-06T01:45:14;16.10;99.90
24410;DHT22;12543;53.364;-1.504;2022-07-06T01:47:41;16.20;99.90
24410;DHT22;12543;53.364;-1.504;2022-07-06T01:50:10;16.20;99.90
24410;DHT22;12543;53.364;-1.504;2022-07-06T01:52:41;16.20;99.90
24410;DHT22;12543;53.364;-1.504;2022-07-06T01:55:09;16.20;99.90
24410;DHT22;12543;53.364;-1.504;2022-07-06T01:57:37;16.20;99.90
24410;DHT22;12543;53.364;-1.504;2022-07-06T02:00:05;16.20;99.90
24410;DHT22;12543;53.364;-1.504;2022-07-06T02:02:38;16.30;99.90
24410;DHT22;12543;53.364;-1.504;2022-07-06T02:05:07;16.20;99.90
24410;DHT22;12543;53.364;-1.504;2022-07-06T02:07:34;16.20;99.90
24410;DHT22;12543;53.364;-1.504;2022-07-06T02:10:02;16.30;99.90
24410;DHT22;12543;53.364;-1.504;2022-07-06T02:12:30;16.30;99.90
24410;DHT22;12543;53.364;-1.504;2022-07-06T02:14:56;16.30;99.90
24410;DHT22;12543;53.364;-1.504;2022-07-06T02:17:24;16.30;99.90
24410;DHT22;12543;53.364;-1.504;2022-07-06T02:19:51;16.30;99.90
24410;DHT22;12543;53.364;-1.504;2022-07-06T02:22:18;16.40;99.90
24410;DHT22;12543;53.364;-1.504;2022-07-06T02:24:44;16.40;99.90
24410;DHT22;12543;53.364;-1.504;2022-07-06T02:27:11;16.40;99.90
24410;DHT22;12543;53.364;-1.504;2022-07-06T02:29:38;16.40;99.90
24410;DHT22;12543;53.364;-1.504;2022-07-06T02:32:07;16.40;99.90
24410;DHT22;12543;53.364;-1.504;2022-07-06T02:34:34;16.40;99.90
24410;DHT22;12543;53.364;-1.504;2022-07-06T02:37:01;16.40;99.90
24410;DHT22;12543;53.364;-1.504;2022-07-06T02:39:28;16.40;99.90
24410;DHT22;12543;53.364;-1.504;2022-07-06T02:41:55;16.40;99.90
24410;DHT22;12543;53.364;-1.504;2022-07-06T02:44:22;16.50;99.90
24410;DHT22;12543;53.364;-1.504;2022-07-06T02:46:51;16.50;99.90
24410;DHT22;12543;53.364;-1.504;2022-07-06T02:49:18;16.50;99.90
24410;DHT22;12543;53.364;-1.504;2022-07-06T02:51:45;16.50;99.90
24410;DHT22;12543;53.364;-1.504;2022-07-06T02:54:12;16.50;99.90
24410;DHT22;12543;53.364;-1.504;2022-07-06T02:56:39;16.60;99.90
24410;DHT22;12543;53.364;-1.504;2022-07-06T02:59:08;16.60;99.90
24410;DHT22;12543;53.364;-1.504;2022-07-06T03:01:40;16.60;99.90
24410;DHT22;12543;53.364;-1.504;2022-07-06T03:04:07;16.60;99.90
24410;DHT22;12543;53.364;-1.504;2022-07-06T03:06:35;16.60;99.90
24410;DHT22;12543;53.364;-1.504;2022-07-06T03:09:02;16.60;99.90
24410;DHT22;12543;53.364;-1.504;2022-07-06T03:11:29;16.60;99.90
24410;DHT22;12543;53.364;-1.504;2022-07-06T03:13:57;16.70;99.90
24410;DHT22;12543;53.364;-1.504;2022-07-06T03:16:24;16.70;99.90
24410;DHT22;12543;53.364;-1.504;2022-07-06T03:18:51;16.70;99.90
24410;DHT22;12543;53.364;-1.504;2022-07-06T03:21:18;16.70;99.90
24410;DHT22;12543;53.364;-1.504;2022-07-06T03:23:45;16.70;99.90
24410;DHT22;12543;53.364;-1.504;2022-07-06T03:26:12;16.70;99.90
24410;DHT22;12543;53.364;-1.504;2022-07-06T03:28:40;16.70;99.90
24410;DHT22;12543;53.364;-1.504;2022-07-06T03:31:07;16.70;99.90
24410;DHT22;12543;53.364;-1.504;2022-07-06T03:33:35;16.70;99.90
24410;DHT22;12543;53.364;-1.504;2022-07-06T03:36:03;16.70;99.90
24410;DHT22;12543;53.364;-1.504;2022-07-06T03:38:33;16.80;99.90
24410;DHT22;12543;53.364;-1.504;2022-07-06T03:41:00;16.80;99.90
24410;DHT22;12543;53.364;-1.504;2022-07-06T03:43:29;16.70;99.90
24410;DHT22;12543;53.364;-1.504;2022-07-06T03:45:56;16.70;99.90
24410;DHT22;12543;53.364;-1.504;2022-07-06T03:48:23;16.70;99.90
24410;DHT22;12543;53.364;-1.504;2022-07-06T03:50:51;16.80;99.90
24410;DHT22;12543;53.364;-1.504;2022-07-06T03:53:18;16.80;99.90
24410;DHT22;12543;53.364;-1.504;2022-07-06T03:55:45;16.80;99.90
24410;DHT22;12543;53.364;-1.504;2022-07-06T03:58:36;16.80;99.90
24410;DHT22;12543;53.364;-1.504;2022-07-06T04:01:03;16.80;99.90
24410;DHT22;12543;53.364;-1.504;2022-07-06T04:03:30;16.70;99.90
24410;DHT22;12543;53.364;-1.504;2022-07-06T04:06:01;16.80;99.90
24410;DHT22;12543;53.364;-1.504;2022-07-06T04:08:28;16.70;99.90
24410;DHT22;12543;53.364;-1.504;2022-07-06T04:10:58;16.70;99.90
24410;DHT22;12543;53.364;-1.504;2022-07-06T04:13:25;16.70;99.90
24410;DHT22;12543;53.364;-1.504;2022-07-06T04:15:53;16.70;99.90
24410;DHT22;12543;53.364;-1.504;2022-07-06T04:18:21;16.70;99.90
24410;DHT22;12543;53.364;-1.504;2022-07-06T04:20:52;16.70;99.90
24410;DHT22;12543;53.364;-1.504;2022-07-06T04:23:19;16.70;99.90
24410;DHT22;12543;53.364;-1.504;2022-07-06T04:25:47;16.70;99.90
24410;DHT22;12543;53.364;-1.504;2022-07-06T04:28:15;16.70;99.90
24410;DHT22;12543;53.364;-1.504;2022-07-06T04:30:42;16.70;99.90
24410;DHT22;12543;53.364;-1.504;2022-07-06T04:33:12;16.60;99.90
24410;DHT22;12543;53.364;-1.504;2022-07-06T04:35:42;16.70;99.90
24410;DHT22;12543;53.364;-1.504;2022-07-06T04:38:09;16.70;99.90
24410;DHT22;12543;53.364;-1.504;2022-07-06T04:40:37;16.70;99.90
24410;DHT22;12543;53.364;-1.504;2022-07-06T04:43:09;16.70;99.90
24410;DHT22;12543;53.364;-1.504;2022-07-06T04:45:37;16.70;99.90
24410;DHT22;12543;53.364;-1.504;2022-07-06T04:48:04;16.70;99.90
24410;DHT22;12543;53.364;-1.504;2022-07-06T04:50:32;16.70;99.90
24410;DHT22;12543;53.364;-1.504;2022-07-06T04:53:09;16.70;99.90
24410;DHT22;12543;53.364;-1.504;2022-07-06T04:55:36;16.70;99.90
24410;DHT22;12543;53.364;-1.504;2022-07-06T04:58:03;16.70;99.90
24410;DHT22;12543;53.364;-1.504;2022-07-06T05:00:31;16.70;99.90
24410;DHT22;12543;53.364;-1.504;2022-07-06T05:02:58;16.70;99.90
24410;DHT22;12543;53.364;-1.504;2022-07-06T05:05:26;16.70;99.90
24410;DHT22;12543;53.364;-1.504;2022-07-06T05:07:53;16.70;99.90
24410;DHT22;12543;53.364;-1.504;2022-07-06T05:10:21;16.70;99.90
24410;DHT22;12543;53.364;-1.504;2022-07-06T05:12:52;16.70;99.90
24410;DHT22;12543;53.364;-1.504;2022-07-06T05:15:19;16.70;99.90
24410;DHT22;12543;53.364;-1.504;2022-07-06T05:17:46;16.70;99.90
24410;DHT22;12543;53.364;-1.504;2022-07-06T05:20:15;16.70;99.90
24410;DHT22;12543;53.364;-1.504;2022-07-06T05:22:44;16.70;99.90
24410;DHT22;12543;53.364;-1.504;2022-07-06T05:25:16;16.70;99.90
24410;DHT22;12543;53.364;-1.504;2022-07-06T05:27:43;16.70;99.90
24410;DHT22;12543;53.364;-1.504;2022-07-06T05:30:11;16.70;99.90
24410;DHT22;12543;53.364;-1.504;2022-07-06T05:32:38;16.70;99.90
24410;DHT22;12543;53.364;-1.504;2022-07-06T05:35:06;16.70;99.90
24410;DHT22;12543;53.364;-1.504;2022-07-06T05:37:53;16.80;99.90
24410;DHT22;12543;53.364;-1.504;2022-07-06T05:40:21;16.80;99.90
24410;DHT22;12543;53.364;-1.504;2022-07-06T05:42:48;16.80;99.90
24410;DHT22;12543;53.364;-1.504;2022-07-06T05:45:15;16.80;99.90
24410;DHT22;12543;53.364;-1.504;2022-07-06T05:47:43;16.80;99.90
24410;DHT22;12543;53.364;-1.504;2022-07-06T05:50:31;16.80;99.90
24410;DHT22;12543;53.364;-1.504;2022-07-06T05:52:59;16.80;99.90
24410;DHT22;12543;53.364;-1.504;2022-07-06T05:55:37;16.80;99.90
24410;DHT22;12543;53.364;-1.504;2022-07-06T05:58:05;16.80;99.90
24410;DHT22;12543;53.364;-1.504;2022-07-06T06:00:33;16.80;99.90
24410;DHT22;12543;53.364;-1.504;2022-07-06T06:03:07;16.80;99.90
24410;DHT22;12543;53.364;-1.504;2022-07-06T06:05:34;16.80;99.90
24410;DHT22;12543;53.364;-1.504;2022-07-06T06:08:04;16.80;99.90
24410;DHT22;12543;53.364;-1.504;2022-07-06T06:10:31;16.90;99.90
24410;DHT22;12543;53.364;-1.504;2022-07-06T06:13:02;16.90;99.90
24410;DHT22;12543;53.364;-1.504;2022-07-06T06:15:29;16.90;99.90
24410;DHT22;12543;53.364;-1.504;2022-07-06T06:17:56;17.00;99.90
24410;DHT22;12543;53.364;-1.504;2022-07-06T06:20:23;17.00;99.90
24410;DHT22;12543;53.364;-1.504;2022-07-06T06:22:51;17.00;99.90
24410;DHT22;12543;53.364;-1.504;2022-07-06T06:25:19;17.10;99.90
24410;DHT22;12543;53.364;-1.504;2022-07-06T06:27:47;17.10;99.90
24410;DHT22;12543;53.364;-1.504;2022-07-06T06:30:14;17.10;99.90
24410;DHT22;12543;53.364;-1.504;2022-07-06T06:32:41;17.20;99.90
24410;DHT22;12543;53.364;-1.504;2022-07-06T06:35:08;17.20;99.90
24410;DHT22;12543;53.364;-1.504;2022-07-06T06:37:35;17.20;99.90
24410;DHT22;12543;53.364;-1.504;2022-07-06T06:40:03;17.20;99.90
24410;DHT22;12543;53.364;-1.504;2022-07-06T06:42:30;17.20;99.90
24410;DHT22;12543;53.364;-1.504;2022-07-06T06:44:58;17.30;99.90
24410;DHT22;12543;53.364;-1.504;2022-07-06T06:47:25;17.30;99.90
24410;DHT22;12543;53.364;-1.504;2022-07-06T06:49:52;17.30;99.90
24410;DHT22;12543;53.364;-1.504;2022-07-06T06:52:19;17.30;99.90
24410;DHT22;12543;53.364;-1.504;2022-07-06T06:55:06;17.30;99.90
24410;DHT22;12543;53.364;-1.504;2022-07-06T06:57:33;17.40;99.90
24410;DHT22;12543;53.364;-1.504;2022-07-06T07:00:00;17.40;99.90
24410;DHT22;12543;53.364;-1.504;2022-07-06T07:02:27;17.40;99.90
24410;DHT22;12543;53.364;-1.504;2022-07-06T07:04:54;17.40;99.90
24410;DHT22;12543;53.364;-1.504;2022-07-06T07:07:21;17.40;99.90
24410;DHT22;12543;53.364;-1.504;2022-07-06T07:09:48;17.40;99.90
24410;DHT22;12543;53.364;-1.504;2022-07-06T07:12:15;17.40;99.90
24410;DHT22;12543;53.364;-1.504;2022-07-06T07:14:44;17.40;99.90
24410;DHT22;12543;53.364;-1.504;2022-07-06T07:17:11;17.40;99.90
24410;DHT22;12543;53.364;-1.504;2022-07-06T07:19:39;17.40;99.90
24410;DHT22;12543;53.364;-1.504;2022-07-06T07:22:06;17.50;99.90
24410;DHT22;12543;53.364;-1.504;2022-07-06T07:24:33;17.50;99.90
24410;DHT22;12543;53.364;-1.504;2022-07-06T07:27:00;17.60;99.90
24410;DHT22;12543;53.364;-1.504;2022-07-06T07:29:27;17.60;99.90
24410;DHT22;12543;53.364;-1.504;2022-07-06T07:31:54;17.70;99.90
24410;DHT22;12543;53.364;-1.504;2022-07-06T07:34:21;17.70;99.90
24410;DHT22;12543;53.364;-1.504;2022-07-06T07:36:48;17.80;99.90
24410;DHT22;12543;53.364;-1.504;2022-07-06T07:39:15;17.80;99.90
24410;DHT22;12543;53.364;-1.504;2022-07-06T07:41:42;17.80;99.90
24410;DHT22;12543;53.364;-1.504;2022-07-06T07:44:09;17.90;99.90
24410;DHT22;12543;53.364;-1.504;2022-07-06T07:46:36;17.90;99.90
24410;DHT22;12543;53.364;-1.504;2022-07-06T07:49:03;17.90;99.90
24410;DHT22;12543;53.364;-1.504;2022-07-06T07:51:32;17.90;99.90
24410;DHT22;12543;53.364;-1.504;2022-07-06T07:53:59;18.00;99.90
24410;DHT22;12543;53.364;-1.504;2022-07-06T07:56:26;18.00;99.90
24410;DHT22;12543;53.364;-1.504;2022-07-06T07:58:52;18.00;99.90
24410;DHT22;12543;53.364;-1.504;2022-07-06T08:01:27;18.00;99.90
24410;DHT22;12543;53.364;-1.504;2022-07-06T08:03:57;18.10;99.90
24410;DHT22;12543;53.364;-1.504;2022-07-06T08:06:24;18.10;99.90
24410;DHT22;12543;53.364;-1.504;2022-07-06T08:08:51;18.10;99.90
24410;DHT22;12543;53.364;-1.504;2022-07-06T08:11:18;18.20;99.90
24410;DHT22;12543;53.364;-1.504;2022-07-06T08:13:45;18.20;99.90
24410;DHT22;12543;53.364;-1.504;2022-07-06T08:16:12;18.30;99.90
24410;DHT22;12543;53.364;-1.504;2022-07-06T08:18:39;18.40;99.90
24410;DHT22;12543;53.364;-1.504;2022-07-06T08:21:07;18.40;99.90
24410;DHT22;12543;53.364;-1.504;2022-07-06T08:23:52;18.50;99.90
24410;DHT22;12543;53.364;-1.504;2022-07-06T08:26:19;18.60;99.90
24410;DHT22;12543;53.364;-1.504;2022-07-06T08:28:46;18.60;99.90
24410;DHT22;12543;53.364;-1.504;2022-07-06T08:31:13;18.80;99.90
24410;DHT22;12543;53.364;-1.504;2022-07-06T08:34:01;18.80;99.90
24410;DHT22;12543;53.364;-1.504;2022-07-06T08:36:28;18.90;99.90
24410;DHT22;12543;53.364;-1.504;2022-07-06T08:38:55;19.00;99.90
24410;DHT22;12543;53.364;-1.504;2022-07-06T08:41:23;19.10;99.90
24410;DHT22;12543;53.364;-1.504;2022-07-06T08:43:52;19.20;99.90
24410;DHT22;12543;53.364;-1.504;2022-07-06T08:46:19;19.20;99.90
24410;DHT22;12543;53.364;-1.504;2022-07-06T08:48:46;19.40;99.90
24410;DHT22;12543;53.364;-1.504;2022-07-06T08:51:14;19.50;99.90
24410;DHT22;12543;53.364;-1.504;2022-07-06T08:53:42;19.60;99.90
24410;DHT22;12543;53.364;-1.504;2022-07-06T08:56:09;19.60;99.90
24410;DHT22;12543;53.364;-1.504;2022-07-06T08:58:36;19.70;99.90
24410;DHT22;12543;53.364;-1.504;2022-07-06T09:01:03;19.80;99.90
24410;DHT22;12543;53.364;-1.504;2022-07-06T09:03:30;19.90;99.90
24410;DHT22;12543;53.364;-1.504;2022-07-06T09:05:59;19.90;99.90
24410;DHT22;12543;53.364;-1.504;2022-07-06T09:08:28;20.00;99.90
24410;DHT22;12543;53.364;-1.504;2022-07-06T09:10:57;20.00;99.90
24410;DHT22;12543;53.364;-1.504;2022-07-06T09:13:24;20.10;99.90
24410;DHT22;12543;53.364;-1.504;2022-07-06T09:15:51;20.10;99.90
24410;DHT22;12543;53.364;-1.504;2022-07-06T09:18:38;20.10;99.90
24410;DHT22;12543;53.364;-1.504;2022-07-06T09:21:05;20.20;99.90
24410;DHT22;12543;53.364;-1.504;2022-07-06T09:23:32;20.20;99.90
24410;DHT22;12543;53.364;-1.504;2022-07-06T09:26:03;20.20;99.90
24410;DHT22;12543;53.364;-1.504;2022-07-06T09:28:41;20.20;99.90
24410;DHT22;12543;53.364;-1.504;2022-07-06T09:31:08;20.20;99.90
24410;DHT22;12543;53.364;-1.504;2022-07-06T09:33:58;20.20;99.90
24410;DHT22;12543;53.364;-1.504;2022-07-06T09:36:43;20.20;99.90
24410;DHT22;12543;53.364;-1.504;2022-07-06T09:39:14;20.20;99.90
24410;DHT22;12543;53.364;-1.504;2022-07-06T09:41:44;20.20;99.90
24410;DHT22;12543;53.364;-1.504;2022-07-06T09:44:12;20.10;99.90
24410;DHT22;12543;53.364;-1.504;2022-07-06T09:46:45;20.10;99.90
24410;DHT22;12543;53.364;-1.504;2022-07-06T09:49:13;20.00;99.90
24410;DHT22;12543;53.364;-1.504;2022-07-06T09:51:43;20.10;99.90
24410;DHT22;12543;53.364;-1.504;2022-07-06T09:54:11;20.20;99.90
24410;DHT22;12543;53.364;-1.504;2022-07-06T09:56:38;20.50;99.90
24410;DHT22;12543;53.364;-1.504;2022-07-06T09:59:09;20.80;99.90
24410;DHT22;12543;53.364;-1.504;2022-07-06T10:01:37;20.90;99.90
24410;DHT22;12543;53.364;-1.504;2022-07-06T10:04:05;21.00;99.90
24410;DHT22;12543;53.364;-1.504;2022-07-06T10:06:33;21.10;99.90
24410;DHT22;12543;53.364;-1.504;2022-07-06T10:08:59;21.20;99.90
24410;DHT22;12543;53.364;-1.504;2022-07-06T10:11:27;21.30;99.90
24410;DHT22;12543;53.364;-1.504;2022-07-06T10:13:56;21.40;99.90
24410;DHT22;12543;53.364;-1.504;2022-07-06T10:16:23;21.40;99.90
24410;DHT22;12543;53.364;-1.504;2022-07-06T10:18:51;21.40;99.90
24410;DHT22;12543;53.364;-1.504;2022-07-06T10:21:21;21.40;99.90
24410;DHT22;12543;53.364;-1.504;2022-07-06T10:23:49;21.40;99.90
24410;DHT22;12543;53.364;-1.504;2022-07-06T10:26:17;21.40;99.90
24410;DHT22;12543;53.364;-1.504;2022-07-06T10:28:44;21.30;99.90
24410;DHT22;12543;53.364;-1.504;2022-07-06T10:31:14;21.30;99.90
24410;DHT22;12543;53.364;-1.504;2022-07-06T10:33:42;21.30;99.90
24410;DHT22;12543;53.364;-1.504;2022-07-06T10:36:10;21.30;99.90
24410;DHT22;12543;53.364;-1.504;2022-07-06T10:38:38;21.50;99.90
24410;DHT22;12543;53.364;-1.504;2022-07-06T10:41:07;21.70;99.90
24410;DHT22;12543;53.364;-1.504;2022-07-06T10:43:38;21.90;99.90
24410;DHT22;12543;53.364;-1.504;2022-07-06T10:46:05;22.00;99.90
24410;DHT22;12543;53.364;-1.504;2022-07-06T10:48:45;22.00;99.90
24410;DHT22;12543;53.364;-1.504;2022-07-06T10:51:13;21.80;99.90
24410;DHT22;12543;53.364;-1.504;2022-07-06T10:53:55;21.80;99.90
24410;DHT22;12543;53.364;-1.504;2022-07-06T10:56:31;21.90;99.90
24410;DHT22;12543;53.364;-1.504;2022-07-06T10:59:14;22.20;99.90
24410;DHT22;12543;53.364;-1.504;2022-07-06T11:02:10;22.50;99.90
24410;DHT22;12543;53.364;-1.504;2022-07-06T11:04:32;23.00;99.90
24410;DHT22;12543;53.364;-1.504;2022-07-06T11:07:06;23.60;99.90
24410;DHT22;12543;53.364;-1.504;2022-07-06T11:09:33;24.20;99.90
24410;DHT22;12543;53.364;-1.504;2022-07-06T11:12:11;24.80;99.90
24410;DHT22;12543;53.364;-1.504;2022-07-06T11:14:38;25.20;99.90
24410;DHT22;12543;53.364;-1.504;2022-07-06T11:17:06;25.60;99.90
24410;DHT22;12543;53.364;-1.504;2022-07-06T11:19:36;25.90;99.90
24410;DHT22;12543;53.364;-1.504;2022-07-06T11:24:31;26.30;99.90
24410;DHT22;12543;53.364;-1.504;2022-07-06T11:26:58;26.50;99.90
24410;DHT22;12543;53.364;-1.504;2022-07-06T11:29:26;26.50;99.90
24410;DHT22;12543;53.364;-1.504;2022-07-06T11:31:54;26.40;99.90
24410;DHT22;12543;53.364;-1.504;2022-07-06T11:34:25;26.30;99.90
24410;DHT22;12543;53.364;-1.504;2022-07-06T11:37:11;26.10;99.90
24410;DHT22;12543;53.364;-1.504;2022-07-06T11:39:39;25.80;99.90
24410;DHT22;12543;53.364;-1.504;2022-07-06T11:42:11;25.60;99.90
24410;DHT22;12543;53.364;-1.504;2022-07-06T11:44:38;25.30;99.90
24410;DHT22;12543;53.364;-1.504;2022-07-06T11:47:05;25.00;99.90
24410;DHT22;12543;53.364;-1.504;2022-07-06T11:49:33;24.80;99.90
24410;DHT22;12543;53.364;-1.504;2022-07-06T11:52:10;24.60;99.90
24410;DHT22;12543;53.364;-1.504;2022-07-06T11:54:38;24.50;99.90
24410;DHT22;12543;53.364;-1.504;2022-07-06T11:57:07;24.50;99.90
24410;DHT22;12543;53.364;-1.504;2022-07-06T11:59:36;24.40;99.90
24410;DHT22;12543;53.364;-1.504;2022-07-06T12:02:14;24.70;99.90
24410;DHT22;12543;53.364;-1.504;2022-07-06T12:04:42;25.00;99.90
24410;DHT22;12543;53.364;-1.504;2022-07-06T12:07:11;25.40;99.90
24410;DHT22;12543;53.364;-1.504;2022-07-06T12:09:39;25.70;99.90
24410;DHT22;12543;53.364;-1.504;2022-07-06T12:12:07;25.90;99.90
24410;DHT22;12543;53.364;-1.504;2022-07-06T12:14:36;26.00;99.90
24410;DHT22;12543;53.364;-1.504;2022-07-06T12:17:04;26.20;99.90
24410;DHT22;12543;53.364;-1.504;2022-07-06T12:19:31;26.30;99.90
24410;DHT22;12543;53.364;-1.504;2022-07-06T12:21:58;26.50;99.90
24410;DHT22;12543;53.364;-1.504;2022-07-06T12:24:28;26.70;99.90
24410;DHT22;12543;53.364;-1.504;2022-07-06T12:26:57;27.00;99.90
24410;DHT22;12543;53.364;-1.504;2022-07-06T12:29:24;27.40;99.90
24410;DHT22;12543;53.364;-1.504;2022-07-06T12:34:19;27.80;99.90
24410;DHT22;12543;53.364;-1.504;2022-07-06T12:36:50;27.90;99.90
24410;DHT22;12543;53.364;-1.504;2022-07-06T12:39:19;27.90;99.90
24410;DHT22;12543;53.364;-1.504;2022-07-06T12:41:48;27.70;99.90
24410;DHT22;12543;53.364;-1.504;2022-07-06T12:44:16;27.50;99.90
24410;DHT22;12543;53.364;-1.504;2022-07-06T12:46:43;27.30;99.90
24410;DHT22;12543;53.364;-1.504;2022-07-06T12:49:15;27.10;99.90
24410;DHT22;12543;53.364;-1.504;2022-07-06T12:51:56;26.90;99.90
24410;DHT22;12543;53.364;-1.504;2022-07-06T12:54:24;26.70;99.90
24410;DHT22;12543;53.364;-1.504;2022-07-06T12:59:27;26.50;99.90
24410;DHT22;12543;53.364;-1.504;2022-07-06T13:01:55;26.60;99.90
24410;DHT22;12543;53.364;-1.504;2022-07-06T13:04:25;26.80;99.90
24410;DHT22;12543;53.364;-1.504;2022-07-06T13:06:53;27.00;99.90
24410;DHT22;12543;53.364;-1.504;2022-07-06T13:09:20;27.10;99.90
24410;DHT22;12543;53.364;-1.504;2022-07-06T13:11:48;26.90;99.90
24410;DHT22;12543;53.364;-1.504;2022-07-06T13:14:15;26.70;99.90
24410;DHT22;12543;53.364;-1.504;2022-07-06T13:16:44;26.50;99.90
24410;DHT22;12543;53.364;-1.504;2022-07-06T13:19:11;26.20;99.90
24410;DHT22;12543;53.364;-1.504;2022-07-06T13:21:38;25.90;99.90
24410;DHT22;12543;53.364;-1.504;2022-07-06T13:24:06;25.60;98.70
24410;DHT22;12543;53.364;-1.504;2022-07-06T13:26:33;25.30;99.90
24410;DHT22;12543;53.364;-1.504;2022-07-06T13:29:01;25.10;99.90
24410;DHT22;12543;53.364;-1.504;2022-07-06T13:31:28;24.90;99.90
24410;DHT22;12543;53.364;-1.504;2022-07-06T13:33:55;24.70;99.90
24410;DHT22;12543;53.364;-1.504;2022-07-06T13:36:22;24.40;99.90
24410;DHT22;12543;53.364;-1.504;2022-07-06T13:38:49;24.20;99.90
24410;DHT22;12543;53.364;-1.504;2022-07-06T13:41:16;24.10;99.90
24410;DHT22;12543;53.364;-1.504;2022-07-06T13:43:43;23.90;99.90
24410;DHT22;12543;53.364;-1.504;2022-07-06T13:46:10;23.80;99.90
24410;DHT22;12543;53.364;-1.504;2022-07-06T13:48:37;23.80;99.90
24410;DHT22;12543;53.364;-1.504;2022-07-06T13:51:04;23.70;99.90
24410;DHT22;12543;53.364;-1.504;2022-07-06T13:53:31;23.70;99.90
24410;DHT22;12543;53.364;-1.504;2022-07-06T13:55:59;23.70;99.90
24410;DHT22;12543;53.364;-1.504;2022-07-06T13:58:26;23.60;99.90
24410;DHT22;12543;53.364;-1.504;2022-07-06T14:00:53;23.40;99.90
24410;DHT22;12543;53.364;-1.504;2022-07-06T14:03:20;23.30;99.90
24410;DHT22;12543;53.364;-1.504;2022-07-06T14:05:48;23.20;99.90
24410;DHT22;12543;53.364;-1.504;2022-07-06T14:08:15;23.00;99.90
24410;DHT22;12543;53.364;-1.504;2022-07-06T14:10:42;22.90;99.90
24410;DHT22;12543;53.364;-1.504;2022-07-06T14:13:09;22.70;99.90
24410;DHT22;12543;53.364;-1.504;2022-07-06T14:15:42;22.60;99.90
24410;DHT22;12543;53.364;-1.504;2022-07-06T14:18:09;22.50;99.90
24410;DHT22;12543;53.364;-1.504;2022-07-06T14:20:36;22.30;99.90
24410;DHT22;12543;53.364;-1.504;2022-07-06T14:23:03;22.20;99.90
24410;DHT22;12543;53.364;-1.504;2022-07-06T14:25:30;22.20;99.90
24410;DHT22;12543;53.364;-1.504;2022-07-06T14:27:57;22.10;99.90
24410;DHT22;12543;53.364;-1.504;2022-07-06T14:30:25;22.00;99.90
24410;DHT22;12543;53.364;-1.504;2022-07-06T14:32:52;21.90;99.90
24410;DHT22;12543;53.364;-1.504;2022-07-06T14:35:19;21.80;99.90
24410;DHT22;12543;53.364;-1.504;2022-07-06T14:37:47;21.70;99.90
24410;DHT22;12543;53.364;-1.504;2022-07-06T14:40:13;21.60;99.90
24410;DHT22;12543;53.364;-1.504;2022-07-06T14:42:40;21.50;99.90
24410;DHT22;12543;53.364;-1.504;2022-07-06T14:45:07;21.40;99.90
24410;DHT22;12543;53.364;-1.504;2022-07-06T14:47:34;21.30;99.90
24410;DHT22;12543;53.364;-1.504;2022-07-06T14:50:03;21.20;99.90
24410;DHT22;12543;53.364;-1.504;2022-07-06T14:52:30;21.10;99.90
24410;DHT22;12543;53.364;-1.504;2022-07-06T14:54:57;21.00;99.90
24410;DHT22;12543;53.364;-1.504;2022-07-06T14:57:26;20.90;99.90
24410;DHT22;12543;53.364;-1.504;2022-07-06T14:59:53;20.90;99.90
24410;DHT22;12543;53.364;-1.504;2022-07-06T15:02:20;20.80;99.90
24410;DHT22;12543;53.364;-1.504;2022-07-06T15:04:47;20.80;99.90
24410;DHT22;12543;53.364;-1.504;2022-07-06T15:07:14;20.80;99.90
24410;DHT22;12543;53.364;-1.504;2022-07-06T15:09:41;20.70;99.90
24410;DHT22;12543;53.364;-1.504;2022-07-06T15:12:08;20.80;99.90
24410;DHT22;12543;53.364;-1.504;2022-07-06T15:14:35;20.80;99.90
24410;DHT22;12543;53.364;-1.504;2022-07-06T15:17:02;20.80;99.90
24410;DHT22;12543;53.364;-1.504;2022-07-06T15:19:29;20.80;99.90
24410;DHT22;12543;53.364;-1.504;2022-07-06T15:21:56;20.80;99.90
24410;DHT22;12543;53.364;-1.504;2022-07-06T15:24:23;20.80;99.90
24410;DHT22;12543;53.364;-1.504;2022-07-06T15:26:51;20.80;99.90
24410;DHT22;12543;53.364;-1.504;2022-07-06T15:29:18;20.80;99.90
24410;DHT22;12543;53.364;-1.504;2022-07-06T15:31:45;20.80;99.90